sensor_id;sensor_type;location;lat;lon;timestamp;P1;durP1;ratioP1;P2;durP2;ratioP2
20619;SDS011;10469;42.720;23.252;2023-08-12T00:00:08;4.95;;;2.72;;
20619;SDS011;10469;42.720;23.252;2023-08-12T00:02:41;3.35;;;2.90;;
20619;SDS011;10469;42.720;23.252;2023-08-12T00:05:07;3.53;;;2.85;;
20619;SDS011;10469;42.720;23.252;2023-08-12T00:07:36;3.40;;;3.10;;
20619;SDS011;10469;42.720;23.252;2023-08-12T00:10:02;6.35;;;3.10;;
20619;SDS011;10469;42.720;23.252;2023-08-12T00:12:31;5.10;;;2.90;;
20619;SDS011;10469;42.720;23.252;2023-08-12T00:14:57;5.05;;;3.03;;
20619;SDS011;10469;42.720;23.252;2023-08-12T00:17:23;6.70;;;2.65;;
20619;SDS011;10469;42.720;23.252;2023-08-12T00:19:49;4.63;;;2.63;;
20619;SDS011;10469;42.720;23.252;2023-08-12T00:22:14;3.53;;;2.60;;
20619;SDS011;10469;42.720;23.252;2023-08-12T00:24:40;4.03;;;2.70;;
20619;SDS011;10469;42.720;23.252;2023-08-12T00:27:06;3.45;;;2.80;;
20619;SDS011;10469;42.720;23.252;2023-08-12T00:29:33;2.70;;;2.50;;
20619;SDS011;10469;42.720;23.252;2023-08-12T00:32:00;4.25;;;2.92;;
20619;SDS011;10469;42.720;23.252;2023-08-12T00:34:26;4.72;;;2.83;;
20619;SDS011;10469;42.720;23.252;2023-08-12T00:36:51;3.28;;;2.80;;
20619;SDS011;10469;42.720;23.252;2023-08-12T00:39:17;2.75;;;2.55;;
20619;SDS011;10469;42.720;23.252;2023-08-12T00:41:43;4.88;;;2.75;;
20619;SDS011;10469;42.720;23.252;2023-08-12T00:44:08;3.13;;;2.83;;
20619;SDS011;10469;42.720;23.252;2023-08-12T00:46:34;2.83;;;2.53;;
20619;SDS011;10469;42.720;23.252;2023-08-12T00:49:01;2.80;;;2.60;;
20619;SDS011;10469;42.720;23.252;2023-08-12T00:51:27;3.10;;;2.80;;
20619;SDS011;10469;42.720;23.252;2023-08-12T00:53:53;2.92;;;2.63;;
20619;SDS011;10469;42.720;23.252;2023-08-12T00:56:20;3.63;;;3.00;;
20619;SDS011;10469;42.720;23.252;2023-08-12T00:58:46;2.67;;;2.47;;
20619;SDS011;10469;42.720;23.252;2023-08-12T01:01:12;8.43;;;2.70;;
20619;SDS011;10469;42.720;23.252;2023-08-12T01:03:38;3.08;;;2.75;;
20619;SDS011;10469;42.720;23.252;2023-08-12T01:06:05;5.15;;;3.10;;
20619;SDS011;10469;42.720;23.252;2023-08-12T01:08:32;7.20;;;2.88;;
20619;SDS011;10469;42.720;23.252;2023-08-12T01:11:02;3.40;;;2.85;;
20619;SDS011;10469;42.720;23.252;2023-08-12T01:13:44;3.38;;;3.03;;
20619;SDS011;10469;42.720;23.252;2023-08-12T01:16:15;2.90;;;2.60;;
20619;SDS011;10469;42.720;23.252;2023-08-12T01:18:44;2.90;;;2.65;;
20619;SDS011;10469;42.720;23.252;2023-08-12T01:21:12;5.07;;;3.05;;
20619;SDS011;10469;42.720;23.252;2023-08-12T01:23:42;2.88;;;2.47;;
20619;SDS011;10469;42.720;23.252;2023-08-12T01:26:08;3.45;;;3.10;;
20619;SDS011;10469;42.720;23.252;2023-08-12T01:28:33;5.82;;;3.47;;
20619;SDS011;10469;42.720;23.252;2023-08-12T01:33:39;3.78;;;3.30;;
20619;SDS011;10469;42.720;23.252;2023-08-12T01:36:09;3.17;;;2.80;;
20619;SDS011;10469;42.720;23.252;2023-08-12T01:38:41;4.10;;;2.90;;
20619;SDS011;10469;42.720;23.252;2023-08-12T01:41:10;12.32;;;2.88;;
20619;SDS011;10469;42.720;23.252;2023-08-12T01:43:38;4.30;;;2.80;;
20619;SDS011;10469;42.720;23.252;2023-08-12T01:46:04;4.93;;;2.97;;
20619;SDS011;10469;42.720;23.252;2023-08-12T01:48:30;2.97;;;2.67;;
20619;SDS011;10469;42.720;23.252;2023-08-12T01:50:56;4.30;;;2.80;;
20619;SDS011;10469;42.720;23.252;2023-08-12T01:53:21;3.45;;;2.85;;
20619;SDS011;10469;42.720;23.252;2023-08-12T01:55:48;6.55;;;2.70;;
20619;SDS011;10469;42.720;23.252;2023-08-12T01:58:15;4.55;;;3.00;;
20619;SDS011;10469;42.720;23.252;2023-08-12T02:00:40;4.03;;;3.05;;
20619;SDS011;10469;42.720;23.252;2023-08-12T02:03:06;4.78;;;2.65;;
20619;SDS011;10469;42.720;23.252;2023-08-12T02:05:33;4.63;;;3.25;;
20619;SDS011;10469;42.720;23.252;2023-08-12T02:07:59;5.00;;;2.65;;
20619;SDS011;10469;42.720;23.252;2023-08-12T02:10:24;4.13;;;2.83;;
20619;SDS011;10469;42.720;23.252;2023-08-12T02:12:50;9.38;;;3.00;;
20619;SDS011;10469;42.720;23.252;2023-08-12T02:15:16;3.63;;;2.92;;
20619;SDS011;10469;42.720;23.252;2023-08-12T02:17:41;3.30;;;3.00;;
20619;SDS011;10469;42.720;23.252;2023-08-12T02:20:07;7.43;;;3.00;;
20619;SDS011;10469;42.720;23.252;2023-08-12T02:22:33;2.70;;;2.50;;
20619;SDS011;10469;42.720;23.252;2023-08-12T02:24:58;3.42;;;2.55;;
20619;SDS011;10469;42.720;23.252;2023-08-12T02:27:25;3.28;;;2.97;;
20619;SDS011;10469;42.720;23.252;2023-08-12T02:29:50;5.00;;;2.70;;
20619;SDS011;10469;42.720;23.252;2023-08-12T02:32:16;2.92;;;2.63;;
20619;SDS011;10469;42.720;23.252;2023-08-12T02:34:42;3.28;;;2.95;;
20619;SDS011;10469;42.720;23.252;2023-08-12T02:37:07;3.20;;;2.90;;
20619;SDS011;10469;42.720;23.252;2023-08-12T02:39:33;3.00;;;2.70;;
20619;SDS011;10469;42.720;23.252;2023-08-12T02:41:59;3.60;;;2.60;;
20619;SDS011;10469;42.720;23.252;2023-08-12T02:44:24;4.95;;;2.70;;
20619;SDS011;10469;42.720;23.252;2023-08-12T02:46:50;3.03;;;2.72;;
20619;SDS011;10469;42.720;23.252;2023-08-12T02:49:15;3.67;;;2.72;;
20619;SDS011;10469;42.720;23.252;2023-08-12T02:51:41;4.43;;;2.67;;
20619;SDS011;10469;42.720;23.252;2023-08-12T02:54:07;3.30;;;2.70;;
20619;SDS011;10469;42.720;23.252;2023-08-12T02:56:32;3.20;;;2.83;;
20619;SDS011;10469;42.720;23.252;2023-08-12T02:58:58;8.52;;;3.15;;
20619;SDS011;10469;42.720;23.252;2023-08-12T03:01:24;3.45;;;2.65;;
20619;SDS011;10469;42.720;23.252;2023-08-12T03:03:50;3.33;;;2.70;;
20619;SDS011;10469;42.720;23.252;2023-08-12T03:06:15;3.15;;;2.88;;
20619;SDS011;10469;42.720;23.252;2023-08-12T03:08:41;4.60;;;2.85;;
20619;SDS011;10469;42.720;23.252;2023-08-12T03:11:07;7.15;;;3.22;;
20619;SDS011;10469;42.720;23.252;2023-08-12T03:13:32;3.08;;;2.75;;
20619;SDS011;10469;42.720;23.252;2023-08-12T03:15:58;4.70;;;3.00;;
20619;SDS011;10469;42.720;23.252;2023-08-12T03:18:24;4.07;;;3.42;;
20619;SDS011;10469;42.720;23.252;2023-08-12T03:20:49;5.25;;;2.78;;
20619;SDS011;10469;42.720;23.252;2023-08-12T03:23:15;5.45;;;3.25;;
20619;SDS011;10469;42.720;23.252;2023-08-12T03:25:41;3.78;;;3.13;;
20619;SDS011;10469;42.720;23.252;2023-08-12T03:28:07;5.40;;;3.45;;
20619;SDS011;10469;42.720;23.252;2023-08-12T03:30:33;5.03;;;3.30;;
20619;SDS011;10469;42.720;23.252;2023-08-12T03:32:58;4.03;;;3.20;;
20619;SDS011;10469;42.720;23.252;2023-08-12T03:35:24;4.43;;;3.20;;
20619;SDS011;10469;42.720;23.252;2023-08-12T03:37:49;4.93;;;2.70;;
20619;SDS011;10469;42.720;23.252;2023-08-12T03:40:17;7.40;;;3.20;;
20619;SDS011;10469;42.720;23.252;2023-08-12T03:42:43;9.98;;;3.30;;
20619;SDS011;10469;42.720;23.252;2023-08-12T03:45:08;3.78;;;2.95;;
20619;SDS011;10469;42.720;23.252;2023-08-12T03:47:34;6.55;;;3.00;;
20619;SDS011;10469;42.720;23.252;2023-08-12T03:50:00;4.65;;;3.08;;
20619;SDS011;10469;42.720;23.252;2023-08-12T03:52:26;4.70;;;2.75;;
20619;SDS011;10469;42.720;23.252;2023-08-12T03:54:51;3.10;;;2.80;;
20619;SDS011;10469;42.720;23.252;2023-08-12T03:57:18;4.88;;;2.90;;
20619;SDS011;10469;42.720;23.252;2023-08-12T03:59:43;5.47;;;3.03;;
20619;SDS011;10469;42.720;23.252;2023-08-12T04:02:09;8.57;;;3.13;;
20619;SDS011;10469;42.720;23.252;2023-08-12T04:04:35;4.30;;;3.30;;
20619;SDS011;10469;42.720;23.252;2023-08-12T04:07:01;5.38;;;3.38;;
20619;SDS011;10469;42.720;23.252;2023-08-12T04:09:27;10.95;;;4.47;;
20619;SDS011;10469;42.720;23.252;2023-08-12T04:11:52;7.88;;;4.00;;
20619;SDS011;10469;42.720;23.252;2023-08-12T04:14:18;10.68;;;4.30;;
20619;SDS011;10469;42.720;23.252;2023-08-12T04:16:43;11.50;;;4.63;;
20619;SDS011;10469;42.720;23.252;2023-08-12T04:19:09;9.82;;;3.97;;
20619;SDS011;10469;42.720;23.252;2023-08-12T04:21:35;6.63;;;3.55;;
20619;SDS011;10469;42.720;23.252;2023-08-12T04:24:00;7.43;;;4.00;;
20619;SDS011;10469;42.720;23.252;2023-08-12T04:26:26;12.40;;;4.00;;
20619;SDS011;10469;42.720;23.252;2023-08-12T04:28:52;6.47;;;4.03;;
20619;SDS011;10469;42.720;23.252;2023-08-12T04:31:17;6.95;;;4.53;;
20619;SDS011;10469;42.720;23.252;2023-08-12T04:33:43;13.48;;;4.18;;
20619;SDS011;10469;42.720;23.252;2023-08-12T04:36:09;10.43;;;4.30;;
20619;SDS011;10469;42.720;23.252;2023-08-12T04:38:34;11.27;;;4.30;;
20619;SDS011;10469;42.720;23.252;2023-08-12T04:41:01;4.70;;;3.50;;
20619;SDS011;10469;42.720;23.252;2023-08-12T04:43:27;8.32;;;3.85;;
20619;SDS011;10469;42.720;23.252;2023-08-12T04:45:53;6.00;;;3.80;;
20619;SDS011;10469;42.720;23.252;2023-08-12T04:48:21;6.47;;;4.25;;
20619;SDS011;10469;42.720;23.252;2023-08-12T04:50:47;12.38;;;4.03;;
20619;SDS011;10469;42.720;23.252;2023-08-12T04:53:13;8.65;;;4.00;;
20619;SDS011;10469;42.720;23.252;2023-08-12T04:55:38;13.95;;;4.63;;
20619;SDS011;10469;42.720;23.252;2023-08-12T04:58:04;6.43;;;4.50;;
20619;SDS011;10469;42.720;23.252;2023-08-12T05:00:29;6.72;;;4.90;;
20619;SDS011;10469;42.720;23.252;2023-08-12T05:02:55;8.73;;;4.50;;
20619;SDS011;10469;42.720;23.252;2023-08-12T05:05:21;5.20;;;4.40;;
20619;SDS011;10469;42.720;23.252;2023-08-12T05:07:47;5.82;;;4.10;;
20619;SDS011;10469;42.720;23.252;2023-08-12T05:10:15;7.20;;;4.43;;
20619;SDS011;10469;42.720;23.252;2023-08-12T05:12:42;5.30;;;3.85;;
20619;SDS011;10469;42.720;23.252;2023-08-12T05:15:09;5.55;;;3.50;;
20619;SDS011;10469;42.720;23.252;2023-08-12T05:17:35;4.22;;;3.83;;
20619;SDS011;10469;42.720;23.252;2023-08-12T05:20:01;5.57;;;3.72;;
20619;SDS011;10469;42.720;23.252;2023-08-12T05:22:26;4.07;;;3.60;;
20619;SDS011;10469;42.720;23.252;2023-08-12T05:27:25;10.27;;;4.07;;
20619;SDS011;10469;42.720;23.252;2023-08-12T05:29:51;10.82;;;4.35;;
20619;SDS011;10469;42.720;23.252;2023-08-12T05:32:20;6.10;;;3.63;;
20619;SDS011;10469;42.720;23.252;2023-08-12T05:34:51;10.15;;;3.80;;
20619;SDS011;10469;42.720;23.252;2023-08-12T05:37:35;7.10;;;4.05;;
20619;SDS011;10469;42.720;23.252;2023-08-12T05:40:00;8.48;;;3.72;;
20619;SDS011;10469;42.720;23.252;2023-08-12T05:42:31;6.38;;;3.60;;
20619;SDS011;10469;42.720;23.252;2023-08-12T05:44:57;6.72;;;3.33;;
20619;SDS011;10469;42.720;23.252;2023-08-12T05:47:23;6.10;;;3.60;;
20619;SDS011;10469;42.720;23.252;2023-08-12T05:49:48;12.60;;;3.90;;
20619;SDS011;10469;42.720;23.252;2023-08-12T05:52:14;4.18;;;3.40;;
20619;SDS011;10469;42.720;23.252;2023-08-12T05:54:39;8.93;;;3.92;;
20619;SDS011;10469;42.720;23.252;2023-08-12T05:57:05;5.00;;;3.25;;
20619;SDS011;10469;42.720;23.252;2023-08-12T05:59:31;5.00;;;3.25;;
20619;SDS011;10469;42.720;23.252;2023-08-12T06:01:56;5.53;;;3.38;;
20619;SDS011;10469;42.720;23.252;2023-08-12T06:04:22;14.15;;;4.60;;
20619;SDS011;10469;42.720;23.252;2023-08-12T06:06:48;3.40;;;3.10;;
20619;SDS011;10469;42.720;23.252;2023-08-12T06:09:13;9.55;;;2.75;;
20619;SDS011;10469;42.720;23.252;2023-08-12T06:11:39;6.25;;;3.00;;
20619;SDS011;10469;42.720;23.252;2023-08-12T06:14:05;8.82;;;2.92;;
20619;SDS011;10469;42.720;23.252;2023-08-12T06:16:31;8.00;;;3.00;;
20619;SDS011;10469;42.720;23.252;2023-08-12T06:18:56;5.95;;;3.25;;
20619;SDS011;10469;42.720;23.252;2023-08-12T06:21:22;3.55;;;2.90;;
20619;SDS011;10469;42.720;23.252;2023-08-12T06:23:48;8.73;;;3.00;;
20619;SDS011;10469;42.720;23.252;2023-08-12T06:26:14;3.30;;;2.88;;
20619;SDS011;10469;42.720;23.252;2023-08-12T06:28:45;3.10;;;2.78;;
20619;SDS011;10469;42.720;23.252;2023-08-12T06:31:11;4.93;;;2.70;;
20619;SDS011;10469;42.720;23.252;2023-08-12T06:33:40;4.30;;;3.00;;
20619;SDS011;10469;42.720;23.252;2023-08-12T06:36:06;18.65;;;3.53;;
20619;SDS011;10469;42.720;23.252;2023-08-12T06:38:31;4.32;;;2.80;;
20619;SDS011;10469;42.720;23.252;2023-08-12T06:40:57;5.20;;;3.00;;
20619;SDS011;10469;42.720;23.252;2023-08-12T06:43:23;5.90;;;3.15;;
20619;SDS011;10469;42.720;23.252;2023-08-12T06:45:48;7.88;;;3.25;;
20619;SDS011;10469;42.720;23.252;2023-08-12T06:48:14;6.90;;;3.03;;
20619;SDS011;10469;42.720;23.252;2023-08-12T06:50:39;6.32;;;3.25;;
20619;SDS011;10469;42.720;23.252;2023-08-12T06:53:05;4.85;;;2.90;;
20619;SDS011;10469;42.720;23.252;2023-08-12T06:55:31;5.80;;;3.00;;
20619;SDS011;10469;42.720;23.252;2023-08-12T06:57:57;9.27;;;3.55;;
20619;SDS011;10469;42.720;23.252;2023-08-12T07:00:22;5.45;;;3.00;;
20619;SDS011;10469;42.720;23.252;2023-08-12T07:02:48;11.57;;;3.10;;
20619;SDS011;10469;42.720;23.252;2023-08-12T07:05:13;7.97;;;2.92;;
20619;SDS011;10469;42.720;23.252;2023-08-12T07:07:39;9.50;;;2.90;;
20619;SDS011;10469;42.720;23.252;2023-08-12T07:10:05;13.20;;;3.33;;
20619;SDS011;10469;42.720;23.252;2023-08-12T07:12:31;5.10;;;2.80;;
20619;SDS011;10469;42.720;23.252;2023-08-12T07:14:58;12.65;;;2.80;;
20619;SDS011;10469;42.720;23.252;2023-08-12T07:17:24;5.18;;;3.22;;
20619;SDS011;10469;42.720;23.252;2023-08-12T07:19:49;7.57;;;3.50;;
20619;SDS011;10469;42.720;23.252;2023-08-12T07:22:15;3.90;;;2.70;;
20619;SDS011;10469;42.720;23.252;2023-08-12T07:24:44;10.68;;;3.10;;
20619;SDS011;10469;42.720;23.252;2023-08-12T07:27:10;5.75;;;3.30;;
20619;SDS011;10469;42.720;23.252;2023-08-12T07:29:36;4.20;;;2.60;;
20619;SDS011;10469;42.720;23.252;2023-08-12T07:32:01;8.20;;;2.85;;
20619;SDS011;10469;42.720;23.252;2023-08-12T07:34:27;8.23;;;3.00;;
20619;SDS011;10469;42.720;23.252;2023-08-12T07:36:53;7.70;;;3.35;;
20619;SDS011;10469;42.720;23.252;2023-08-12T07:39:18;11.63;;;3.15;;
20619;SDS011;10469;42.720;23.252;2023-08-12T07:41:44;7.28;;;3.08;;
20619;SDS011;10469;42.720;23.252;2023-08-12T07:44:09;9.48;;;3.70;;
20619;SDS011;10469;42.720;23.252;2023-08-12T07:46:35;5.95;;;2.83;;
20619;SDS011;10469;42.720;23.252;2023-08-12T07:49:01;8.63;;;3.20;;
20619;SDS011;10469;42.720;23.252;2023-08-12T07:51:26;6.32;;;2.67;;
20619;SDS011;10469;42.720;23.252;2023-08-12T07:53:52;6.10;;;2.78;;
20619;SDS011;10469;42.720;23.252;2023-08-12T07:56:18;7.07;;;2.65;;
20619;SDS011;10469;42.720;23.252;2023-08-12T07:58:43;8.32;;;2.85;;
20619;SDS011;10469;42.720;23.252;2023-08-12T08:01:10;3.13;;;2.40;;
20619;SDS011;10469;42.720;23.252;2023-08-12T08:03:36;4.53;;;2.42;;
20619;SDS011;10469;42.720;23.252;2023-08-12T08:06:02;2.97;;;2.47;;
20619;SDS011;10469;42.720;23.252;2023-08-12T08:08:27;6.47;;;2.90;;
20619;SDS011;10469;42.720;23.252;2023-08-12T08:10:53;3.70;;;2.60;;
20619;SDS011;10469;42.720;23.252;2023-08-12T08:13:19;3.88;;;2.60;;
20619;SDS011;10469;42.720;23.252;2023-08-12T08:15:45;5.35;;;3.90;;
20619;SDS011;10469;42.720;23.252;2023-08-12T08:18:11;6.28;;;2.50;;
20619;SDS011;10469;42.720;23.252;2023-08-12T08:20:36;4.93;;;2.88;;
20619;SDS011;10469;42.720;23.252;2023-08-12T08:23:02;6.93;;;2.60;;
20619;SDS011;10469;42.720;23.252;2023-08-12T08:25:27;8.88;;;3.10;;
20619;SDS011;10469;42.720;23.252;2023-08-12T08:27:53;15.90;;;3.08;;
20619;SDS011;10469;42.720;23.252;2023-08-12T08:30:19;6.18;;;2.72;;
20619;SDS011;10469;42.720;23.252;2023-08-12T08:32:44;4.85;;;2.75;;
20619;SDS011;10469;42.720;23.252;2023-08-12T08:35:11;5.55;;;3.08;;
20619;SDS011;10469;42.720;23.252;2023-08-12T08:37:37;6.80;;;2.72;;
20619;SDS011;10469;42.720;23.252;2023-08-12T08:40:03;8.30;;;3.67;;
20619;SDS011;10469;42.720;23.252;2023-08-12T08:42:29;5.88;;;2.63;;
20619;SDS011;10469;42.720;23.252;2023-08-12T08:44:56;7.50;;;3.03;;
20619;SDS011;10469;42.720;23.252;2023-08-12T08:47:29;7.30;;;2.60;;
20619;SDS011;10469;42.720;23.252;2023-08-12T08:49:56;3.78;;;2.50;;
20619;SDS011;10469;42.720;23.252;2023-08-12T08:52:22;5.03;;;2.45;;
20619;SDS011;10469;42.720;23.252;2023-08-12T08:54:49;5.47;;;2.90;;
20619;SDS011;10469;42.720;23.252;2023-08-12T08:57:15;4.47;;;2.40;;
20619;SDS011;10469;42.720;23.252;2023-08-12T08:59:41;3.40;;;2.85;;
20619;SDS011;10469;42.720;23.252;2023-08-12T09:02:09;2.97;;;2.55;;
20619;SDS011;10469;42.720;23.252;2023-08-12T09:04:41;7.75;;;2.42;;
20619;SDS011;10469;42.720;23.252;2023-08-12T09:07:07;8.13;;;2.55;;
20619;SDS011;10469;42.720;23.252;2023-08-12T09:09:34;6.20;;;3.67;;
20619;SDS011;10469;42.720;23.252;2023-08-12T09:12:00;6.55;;;2.35;;
20619;SDS011;10469;42.720;23.252;2023-08-12T09:14:27;4.45;;;3.17;;
20619;SDS011;10469;42.720;23.252;2023-08-12T09:16:54;5.20;;;2.90;;
20619;SDS011;10469;42.720;23.252;2023-08-12T09:19:20;6.68;;;3.58;;
20619;SDS011;10469;42.720;23.252;2023-08-12T09:21:51;5.63;;;2.40;;
20619;SDS011;10469;42.720;23.252;2023-08-12T09:24:23;3.38;;;2.42;;
20619;SDS011;10469;42.720;23.252;2023-08-12T09:26:55;2.80;;;2.30;;
20619;SDS011;10469;42.720;23.252;2023-08-12T09:29:31;5.88;;;2.25;;
20619;SDS011;10469;42.720;23.252;2023-08-12T09:32:18;2.08;;;1.92;;
20619;SDS011;10469;42.720;23.252;2023-08-12T09:44:36;4.55;;;2.13;;
20619;SDS011;10469;42.720;23.252;2023-08-12T09:47:02;5.57;;;2.20;;
20619;SDS011;10469;42.720;23.252;2023-08-12T09:49:28;3.00;;;2.30;;
20619;SDS011;10469;42.720;23.252;2023-08-12T09:51:55;5.80;;;2.63;;
20619;SDS011;10469;42.720;23.252;2023-08-12T09:54:21;3.33;;;3.00;;
20619;SDS011;10469;42.720;23.252;2023-08-12T09:56:49;3.05;;;2.50;;
20619;SDS011;10469;42.720;23.252;2023-08-12T09:59:25;4.75;;;2.30;;
20619;SDS011;10469;42.720;23.252;2023-08-12T10:01:56;3.97;;;2.63;;
20619;SDS011;10469;42.720;23.252;2023-08-12T10:04:23;4.30;;;2.55;;
20619;SDS011;10469;42.720;23.252;2023-08-12T10:06:52;7.07;;;3.80;;
20619;SDS011;10469;42.720;23.252;2023-08-12T10:09:18;2.92;;;2.33;;
20619;SDS011;10469;42.720;23.252;2023-08-12T10:11:45;3.22;;;2.55;;
20619;SDS011;10469;42.720;23.252;2023-08-12T10:14:12;2.65;;;2.20;;
20619;SDS011;10469;42.720;23.252;2023-08-12T10:16:38;2.90;;;2.42;;
20619;SDS011;10469;42.720;23.252;2023-08-12T10:19:04;3.85;;;2.50;;
20619;SDS011;10469;42.720;23.252;2023-08-12T10:21:31;9.32;;;2.50;;
20619;SDS011;10469;42.720;23.252;2023-08-12T10:23:58;6.18;;;2.17;;
20619;SDS011;10469;42.720;23.252;2023-08-12T10:26:26;6.07;;;2.50;;
20619;SDS011;10469;42.720;23.252;2023-08-12T10:28:53;4.97;;;2.50;;
20619;SDS011;10469;42.720;23.252;2023-08-12T10:31:19;5.78;;;2.40;;
20619;SDS011;10469;42.720;23.252;2023-08-12T10:33:45;2.28;;;2.08;;
20619;SDS011;10469;42.720;23.252;2023-08-12T10:36:14;3.38;;;2.83;;
20619;SDS011;10469;42.720;23.252;2023-08-12T10:38:41;2.58;;;2.15;;
20619;SDS011;10469;42.720;23.252;2023-08-12T10:43:53;5.05;;;2.47;;
20619;SDS011;10469;42.720;23.252;2023-08-12T10:46:24;2.50;;;2.30;;
20619;SDS011;10469;42.720;23.252;2023-08-12T10:49:18;3.85;;;2.00;;
20619;SDS011;10469;42.720;23.252;2023-08-12T10:51:47;2.80;;;2.25;;
20619;SDS011;10469;42.720;23.252;2023-08-12T10:54:23;3.03;;;2.78;;
20619;SDS011;10469;42.720;23.252;2023-08-12T11:04:49;5.47;;;1.92;;
20619;SDS011;10469;42.720;23.252;2023-08-12T11:07:17;2.45;;;1.85;;
20619;SDS011;10469;42.720;23.252;2023-08-12T11:09:45;3.20;;;2.22;;
20619;SDS011;10469;42.720;23.252;2023-08-12T11:12:16;3.42;;;2.05;;
20619;SDS011;10469;42.720;23.252;2023-08-12T11:14:53;2.65;;;1.80;;
20619;SDS011;10469;42.720;23.252;2023-08-12T11:17:19;1.80;;;1.70;;
20619;SDS011;10469;42.720;23.252;2023-08-12T11:19:44;2.53;;;1.88;;
20619;SDS011;10469;42.720;23.252;2023-08-12T11:22:10;1.70;;;1.60;;
20619;SDS011;10469;42.720;23.252;2023-08-12T11:24:40;2.05;;;1.95;;
20619;SDS011;10469;42.720;23.252;2023-08-12T11:27:09;1.85;;;1.75;;
20619;SDS011;10469;42.720;23.252;2023-08-12T11:29:36;1.88;;;1.77;;
20619;SDS011;10469;42.720;23.252;2023-08-12T11:32:04;3.38;;;2.00;;
20619;SDS011;10469;42.720;23.252;2023-08-12T11:34:30;5.18;;;2.45;;
20619;SDS011;10469;42.720;23.252;2023-08-12T11:36:57;2.10;;;1.88;;
20619;SDS011;10469;42.720;23.252;2023-08-12T11:39:24;2.85;;;2.20;;
20619;SDS011;10469;42.720;23.252;2023-08-12T11:41:49;3.33;;;2.10;;
20619;SDS011;10469;42.720;23.252;2023-08-12T11:44:22;6.85;;;2.60;;
20619;SDS011;10469;42.720;23.252;2023-08-12T11:46:48;2.95;;;2.30;;
20619;SDS011;10469;42.720;23.252;2023-08-12T11:49:14;3.45;;;2.05;;
20619;SDS011;10469;42.720;23.252;2023-08-12T11:51:40;2.58;;;2.38;;
20619;SDS011;10469;42.720;23.252;2023-08-12T11:54:07;2.80;;;2.08;;
20619;SDS011;10469;42.720;23.252;2023-08-12T11:56:33;2.95;;;2.05;;
20619;SDS011;10469;42.720;23.252;2023-08-12T11:58:59;2.72;;;2.28;;
20619;SDS011;10469;42.720;23.252;2023-08-12T12:01:24;7.75;;;2.40;;
20619;SDS011;10469;42.720;23.252;2023-08-12T12:03:53;7.78;;;2.42;;
20619;SDS011;10469;42.720;23.252;2023-08-12T12:06:27;3.60;;;1.98;;
20619;SDS011;10469;42.720;23.252;2023-08-12T12:09:01;3.35;;;2.40;;
20619;SDS011;10469;42.720;23.252;2023-08-12T12:11:31;4.60;;;2.20;;
20619;SDS011;10469;42.720;23.252;2023-08-12T12:14:04;2.60;;;2.33;;
20619;SDS011;10469;42.720;23.252;2023-08-12T12:16:37;6.07;;;2.60;;
20619;SDS011;10469;42.720;23.252;2023-08-12T12:19:03;5.28;;;2.50;;
20619;SDS011;10469;42.720;23.252;2023-08-12T12:21:31;4.47;;;2.45;;
20619;SDS011;10469;42.720;23.252;2023-08-12T12:24:04;4.65;;;2.45;;
20619;SDS011;10469;42.720;23.252;2023-08-12T12:26:30;10.02;;;2.15;;
20619;SDS011;10469;42.720;23.252;2023-08-12T12:28:55;6.43;;;2.63;;
20619;SDS011;10469;42.720;23.252;2023-08-12T12:31:21;2.15;;;2.00;;
20619;SDS011;10469;42.720;23.252;2023-08-12T12:33:46;3.28;;;2.10;;
20619;SDS011;10469;42.720;23.252;2023-08-12T12:36:12;3.90;;;2.47;;
20619;SDS011;10469;42.720;23.252;2023-08-12T12:38:38;5.35;;;2.70;;
20619;SDS011;10469;42.720;23.252;2023-08-12T12:41:03;5.40;;;2.30;;
20619;SDS011;10469;42.720;23.252;2023-08-12T12:43:29;5.38;;;2.17;;
20619;SDS011;10469;42.720;23.252;2023-08-12T12:45:54;3.50;;;2.47;;
20619;SDS011;10469;42.720;23.252;2023-08-12T12:48:20;5.05;;;2.20;;
20619;SDS011;10469;42.720;23.252;2023-08-12T12:50:45;8.52;;;2.58;;
20619;SDS011;10469;42.720;23.252;2023-08-12T12:53:11;2.60;;;2.30;;
20619;SDS011;10469;42.720;23.252;2023-08-12T12:55:37;3.88;;;2.35;;
20619;SDS011;10469;42.720;23.252;2023-08-12T12:58:03;2.50;;;2.30;;
20619;SDS011;10469;42.720;23.252;2023-08-12T13:00:28;8.02;;;2.28;;
20619;SDS011;10469;42.720;23.252;2023-08-12T13:02:54;3.92;;;2.20;;
20619;SDS011;10469;42.720;23.252;2023-08-12T13:05:19;4.78;;;2.50;;
20619;SDS011;10469;42.720;23.252;2023-08-12T13:07:45;3.15;;;2.22;;
20619;SDS011;10469;42.720;23.252;2023-08-12T13:10:11;3.72;;;2.47;;
20619;SDS011;10469;42.720;23.252;2023-08-12T13:12:36;2.80;;;2.15;;
20619;SDS011;10469;42.720;23.252;2023-08-12T13:15:02;3.20;;;2.50;;
20619;SDS011;10469;42.720;23.252;2023-08-12T13:17:29;2.58;;;2.40;;
20619;SDS011;10469;42.720;23.252;2023-08-12T13:19:55;2.72;;;1.98;;
20619;SDS011;10469;42.720;23.252;2023-08-12T13:22:20;3.05;;;2.00;;
20619;SDS011;10469;42.720;23.252;2023-08-12T13:24:46;2.42;;;2.22;;
20619;SDS011;10469;42.720;23.252;2023-08-12T13:27:12;2.50;;;2.30;;
20619;SDS011;10469;42.720;23.252;2023-08-12T13:29:38;2.85;;;1.98;;
20619;SDS011;10469;42.720;23.252;2023-08-12T13:32:04;2.97;;;2.10;;
20619;SDS011;10469;42.720;23.252;2023-08-12T13:34:29;2.38;;;2.17;;
20619;SDS011;10469;42.720;23.252;2023-08-12T13:36:55;3.60;;;2.22;;
20619;SDS011;10469;42.720;23.252;2023-08-12T13:39:20;2.50;;;2.10;;
20619;SDS011;10469;42.720;23.252;2023-08-12T13:41:47;5.63;;;2.35;;
20619;SDS011;10469;42.720;23.252;2023-08-12T13:44:12;3.30;;;2.00;;
20619;SDS011;10469;42.720;23.252;2023-08-12T13:46:38;3.05;;;2.30;;
20619;SDS011;10469;42.720;23.252;2023-08-12T13:49:04;3.80;;;1.92;;
20619;SDS011;10469;42.720;23.252;2023-08-12T13:51:29;4.05;;;2.30;;
20619;SDS011;10469;42.720;23.252;2023-08-12T13:53:56;2.53;;;2.00;;
20619;SDS011;10469;42.720;23.252;2023-08-12T13:56:21;2.65;;;2.20;;
20619;SDS011;10469;42.720;23.252;2023-08-12T13:58:47;4.40;;;2.15;;
20619;SDS011;10469;42.720;23.252;2023-08-12T14:01:12;2.72;;;2.03;;
20619;SDS011;10469;42.720;23.252;2023-08-12T14:03:38;1.92;;;1.80;;
20619;SDS011;10469;42.720;23.252;2023-08-12T14:06:04;1.85;;;1.70;;
20619;SDS011;10469;42.720;23.252;2023-08-12T14:08:30;2.13;;;2.00;;
20619;SDS011;10469;42.720;23.252;2023-08-12T14:10:55;2.72;;;1.92;;
20619;SDS011;10469;42.720;23.252;2023-08-12T14:13:21;3.88;;;1.92;;
20619;SDS011;10469;42.720;23.252;2023-08-12T14:15:46;3.88;;;1.90;;
20619;SDS011;10469;42.720;23.252;2023-08-12T14:18:12;1.88;;;1.70;;
20619;SDS011;10469;42.720;23.252;2023-08-12T14:20:38;2.60;;;2.00;;
20619;SDS011;10469;42.720;23.252;2023-08-12T14:23:03;4.60;;;1.90;;
20619;SDS011;10469;42.720;23.252;2023-08-12T14:25:29;3.25;;;2.35;;
20619;SDS011;10469;42.720;23.252;2023-08-12T14:27:55;2.85;;;1.80;;
20619;SDS011;10469;42.720;23.252;2023-08-12T14:30:23;4.35;;;2.17;;
20619;SDS011;10469;42.720;23.252;2023-08-12T14:32:50;2.33;;;2.00;;
20619;SDS011;10469;42.720;23.252;2023-08-12T14:35:16;2.30;;;2.10;;
20619;SDS011;10469;42.720;23.252;2023-08-12T14:37:42;2.17;;;2.05;;
20619;SDS011;10469;42.720;23.252;2023-08-12T14:40:08;2.95;;;2.03;;
20619;SDS011;10469;42.720;23.252;2023-08-12T14:42:34;2.10;;;2.00;;
20619;SDS011;10469;42.720;23.252;2023-08-12T14:45:00;2.58;;;2.15;;
20619;SDS011;10469;42.720;23.252;2023-08-12T14:47:25;2.15;;;2.03;;
20619;SDS011;10469;42.720;23.252;2023-08-12T14:49:51;2.10;;;1.85;;
20619;SDS011;10469;42.720;23.252;2023-08-12T14:52:18;2.03;;;1.77;;
20619;SDS011;10469;42.720;23.252;2023-08-12T14:54:45;4.90;;;2.10;;